sensor_id;sensor_type;location;lat;lon;timestamp;P1;durP1;ratioP1;P2;durP2;ratioP2
33794;SDS011;51430;52.242;21.118;2023-04-05T00:01:03;11.90;;;8.30;;
33794;SDS011;51430;52.242;21.118;2023-04-05T00:03:34;11.70;;;8.20;;
33794;SDS011;51430;52.242;21.118;2023-04-05T00:06:02;10.80;;;8.20;;
33794;SDS011;51430;52.242;21.118;2023-04-05T00:08:31;11.50;;;8.10;;
33794;SDS011;51430;52.242;21.118;2023-04-05T00:10:59;11.10;;;8.10;;
33794;SDS011;51430;52.242;21.118;2023-04-05T00:13:27;11.70;;;8.50;;
33794;SDS011;51430;52.242;21.118;2023-04-05T00:15:55;12.30;;;8.50;;
33794;SDS011;51430;52.242;21.118;2023-04-05T00:18:24;12.10;;;9.20;;
33794;SDS011;51430;52.242;21.118;2023-04-05T00:20:52;13.70;;;9.80;;
33794;SDS011;51430;52.242;21.118;2023-04-05T00:23:20;14.30;;;10.10;;
33794;SDS011;51430;52.242;21.118;2023-04-05T00:25:49;14.10;;;10.70;;
33794;SDS011;51430;52.242;21.118;2023-04-05T00:28:17;13.80;;;10.20;;
33794;SDS011;51430;52.242;21.118;2023-04-05T00:30:45;13.40;;;10.50;;
33794;SDS011;51430;52.242;21.118;2023-04-05T00:33:13;13.50;;;10.20;;
33794;SDS011;51430;52.242;21.118;2023-04-05T00:35:41;13.50;;;10.70;;
33794;SDS011;51430;52.242;21.118;2023-04-05T00:38:09;13.20;;;9.60;;
33794;SDS011;51430;52.242;21.118;2023-04-05T00:40:39;14.40;;;10.00;;
33794;SDS011;51430;52.242;21.118;2023-04-05T00:43:07;15.50;;;10.80;;
33794;SDS011;51430;52.242;21.118;2023-04-05T00:45:35;15.20;;;11.00;;
33794;SDS011;51430;52.242;21.118;2023-04-05T00:48:03;18.60;;;12.80;;
33794;SDS011;51430;52.242;21.118;2023-04-05T00:50:32;17.90;;;12.70;;
33794;SDS011;51430;52.242;21.118;2023-04-05T00:53:00;19.80;;;13.40;;
33794;SDS011;51430;52.242;21.118;2023-04-05T00:55:27;18.70;;;13.80;;
33794;SDS011;51430;52.242;21.118;2023-04-05T00:57:56;18.80;;;13.80;;
33794;SDS011;51430;52.242;21.118;2023-04-05T01:00:24;18.80;;;13.80;;
33794;SDS011;51430;52.242;21.118;2023-04-05T01:02:54;21.00;;;14.70;;
33794;SDS011;51430;52.242;21.118;2023-04-05T01:05:35;21.00;;;14.60;;
33794;SDS011;51430;52.242;21.118;2023-04-05T01:11:01;21.30;;;14.30;;
33794;SDS011;51430;52.242;21.118;2023-04-05T01:13:32;21.40;;;15.20;;
33794;SDS011;51430;52.242;21.118;2023-04-05T01:16:00;21.80;;;15.20;;
33794;SDS011;51430;52.242;21.118;2023-04-05T01:18:28;22.40;;;15.30;;
33794;SDS011;51430;52.242;21.118;2023-04-05T01:20:59;22.10;;;16.10;;
33794;SDS011;51430;52.242;21.118;2023-04-05T01:23:59;22.60;;;15.80;;
33794;SDS011;51430;52.242;21.118;2023-04-05T01:29:26;22.90;;;16.40;;
33794;SDS011;51430;52.242;21.118;2023-04-05T01:35:16;25.20;;;17.10;;
33794;SDS011;51430;52.242;21.118;2023-04-05T01:37:52;24.00;;;16.80;;
33794;SDS011;51430;52.242;21.118;2023-04-05T01:40:26;26.60;;;16.80;;
33794;SDS011;51430;52.242;21.118;2023-04-05T01:42:54;23.90;;;16.60;;
33794;SDS011;51430;52.242;21.118;2023-04-05T01:45:22;25.50;;;17.60;;
33794;SDS011;51430;52.242;21.118;2023-04-05T01:47:50;25.10;;;17.80;;
33794;SDS011;51430;52.242;21.118;2023-04-05T01:50:18;26.00;;;16.90;;
33794;SDS011;51430;52.242;21.118;2023-04-05T01:52:47;25.50;;;16.50;;
33794;SDS011;51430;52.242;21.118;2023-04-05T01:55:15;24.20;;;17.20;;
33794;SDS011;51430;52.242;21.118;2023-04-05T01:57:43;24.80;;;17.60;;
33794;SDS011;51430;52.242;21.118;2023-04-05T02:00:12;24.50;;;17.10;;
33794;SDS011;51430;52.242;21.118;2023-04-05T02:02:40;28.40;;;19.00;;
33794;SDS011;51430;52.242;21.118;2023-04-05T02:05:08;26.90;;;18.40;;
33794;SDS011;51430;52.242;21.118;2023-04-05T02:07:36;27.30;;;18.50;;
33794;SDS011;51430;52.242;21.118;2023-04-05T02:10:04;28.00;;;18.40;;
33794;SDS011;51430;52.242;21.118;2023-04-05T02:12:32;26.10;;;18.90;;
33794;SDS011;51430;52.242;21.118;2023-04-05T02:15:00;26.60;;;19.00;;
33794;SDS011;51430;52.242;21.118;2023-04-05T02:17:28;27.90;;;19.50;;
33794;SDS011;51430;52.242;21.118;2023-04-05T02:20:00;28.30;;;19.00;;
33794;SDS011;51430;52.242;21.118;2023-04-05T02:22:28;28.40;;;18.90;;
33794;SDS011;51430;52.242;21.118;2023-04-05T02:24:56;31.10;;;19.60;;
33794;SDS011;51430;52.242;21.118;2023-04-05T02:27:24;30.90;;;20.40;;
33794;SDS011;51430;52.242;21.118;2023-04-05T02:29:52;30.90;;;19.90;;
33794;SDS011;51430;52.242;21.118;2023-04-05T02:32:22;29.10;;;20.10;;
33794;SDS011;51430;52.242;21.118;2023-04-05T02:34:51;28.20;;;19.90;;
33794;SDS011;51430;52.242;21.118;2023-04-05T02:37:19;28.10;;;18.80;;
33794;SDS011;51430;52.242;21.118;2023-04-05T02:39:47;29.20;;;19.50;;
33794;SDS011;51430;52.242;21.118;2023-04-05T02:42:15;30.10;;;20.30;;
33794;SDS011;51430;52.242;21.118;2023-04-05T02:44:43;27.60;;;20.00;;
33794;SDS011;51430;52.242;21.118;2023-04-05T02:47:10;29.80;;;19.60;;
33794;SDS011;51430;52.242;21.118;2023-04-05T02:49:38;28.80;;;19.60;;
33794;SDS011;51430;52.242;21.118;2023-04-05T02:52:07;26.10;;;19.00;;
33794;SDS011;51430;52.242;21.118;2023-04-05T02:54:35;27.50;;;18.80;;
33794;SDS011;51430;52.242;21.118;2023-04-05T02:57:03;27.10;;;17.60;;
33794;SDS011;51430;52.242;21.118;2023-04-05T02:59:30;25.50;;;18.60;;
33794;SDS011;51430;52.242;21.118;2023-04-05T03:01:59;25.30;;;18.30;;
33794;SDS011;51430;52.242;21.118;2023-04-05T03:04:27;27.00;;;19.10;;
33794;SDS011;51430;52.242;21.118;2023-04-05T03:06:55;23.70;;;18.50;;
33794;SDS011;51430;52.242;21.118;2023-04-05T03:09:23;26.50;;;18.30;;
33794;SDS011;51430;52.242;21.118;2023-04-05T03:11:53;25.60;;;17.90;;
33794;SDS011;51430;52.242;21.118;2023-04-05T03:14:21;26.40;;;18.20;;
33794;SDS011;51430;52.242;21.118;2023-04-05T03:16:49;25.40;;;18.90;;
33794;SDS011;51430;52.242;21.118;2023-04-05T03:19:17;24.00;;;18.40;;
33794;SDS011;51430;52.242;21.118;2023-04-05T03:21:49;24.80;;;19.20;;
33794;SDS011;51430;52.242;21.118;2023-04-05T03:24:17;29.50;;;19.90;;
33794;SDS011;51430;52.242;21.118;2023-04-05T03:26:45;26.80;;;19.70;;
33794;SDS011;51430;52.242;21.118;2023-04-05T03:29:14;28.30;;;19.90;;
33794;SDS011;51430;52.242;21.118;2023-04-05T03:31:43;26.90;;;18.80;;
33794;SDS011;51430;52.242;21.118;2023-04-05T03:34:11;26.50;;;18.90;;
33794;SDS011;51430;52.242;21.118;2023-04-05T03:36:39;26.00;;;18.90;;
33794;SDS011;51430;52.242;21.118;2023-04-05T03:39:11;26.30;;;18.20;;
33794;SDS011;51430;52.242;21.118;2023-04-05T03:41:39;24.90;;;17.80;;
33794;SDS011;51430;52.242;21.118;2023-04-05T03:44:09;23.40;;;17.70;;
33794;SDS011;51430;52.242;21.118;2023-04-05T03:46:37;24.00;;;18.10;;
33794;SDS011;51430;52.242;21.118;2023-04-05T03:49:05;21.90;;;18.00;;
33794;SDS011;51430;52.242;21.118;2023-04-05T03:51:33;23.60;;;17.80;;
33794;SDS011;51430;52.242;21.118;2023-04-05T03:54:01;23.40;;;17.50;;
33794;SDS011;51430;52.242;21.118;2023-04-05T03:56:31;22.20;;;17.20;;
33794;SDS011;51430;52.242;21.118;2023-04-05T03:58:59;22.80;;;16.60;;
33794;SDS011;51430;52.242;21.118;2023-04-05T04:01:27;23.20;;;16.80;;
33794;SDS011;51430;52.242;21.118;2023-04-05T04:03:55;21.30;;;15.50;;
33794;SDS011;51430;52.242;21.118;2023-04-05T04:06:23;21.40;;;15.80;;
33794;SDS011;51430;52.242;21.118;2023-04-05T04:08:53;21.60;;;16.10;;
33794;SDS011;51430;52.242;21.118;2023-04-05T04:11:21;20.00;;;15.50;;
33794;SDS011;51430;52.242;21.118;2023-04-05T04:13:49;21.40;;;15.40;;
33794;SDS011;51430;52.242;21.118;2023-04-05T04:16:17;21.70;;;15.70;;
33794;SDS011;51430;52.242;21.118;2023-04-05T04:18:45;19.20;;;14.40;;
33794;SDS011;51430;52.242;21.118;2023-04-05T04:21:12;18.60;;;14.80;;
33794;SDS011;51430;52.242;21.118;2023-04-05T04:23:43;21.60;;;14.80;;
33794;SDS011;51430;52.242;21.118;2023-04-05T04:26:12;21.00;;;15.20;;
33794;SDS011;51430;52.242;21.118;2023-04-05T04:28:40;20.70;;;14.60;;
33794;SDS011;51430;52.242;21.118;2023-04-05T04:31:10;20.00;;;14.50;;
33794;SDS011;51430;52.242;21.118;2023-04-05T04:33:39;19.90;;;14.30;;
33794;SDS011;51430;52.242;21.118;2023-04-05T04:36:10;18.60;;;15.00;;
33794;SDS011;51430;52.242;21.118;2023-04-05T04:38:40;22.50;;;15.20;;
33794;SDS011;51430;52.242;21.118;2023-04-05T04:41:10;21.90;;;14.20;;
33794;SDS011;51430;52.242;21.118;2023-04-05T04:43:39;23.10;;;15.40;;
33794;SDS011;51430;52.242;21.118;2023-04-05T04:46:10;19.80;;;15.60;;
33794;SDS011;51430;52.242;21.118;2023-04-05T04:48:41;21.70;;;15.00;;
33794;SDS011;51430;52.242;21.118;2023-04-05T04:51:09;20.60;;;15.20;;
33794;SDS011;51430;52.242;21.118;2023-04-05T04:53:38;23.70;;;16.00;;
33794;SDS011;51430;52.242;21.118;2023-04-05T04:56:06;20.80;;;15.30;;
33794;SDS011;51430;52.242;21.118;2023-04-05T04:58:34;22.00;;;15.20;;
33794;SDS011;51430;52.242;21.118;2023-04-05T05:01:06;23.30;;;15.80;;
33794;SDS011;51430;52.242;21.118;2023-04-05T05:03:38;22.50;;;16.30;;
33794;SDS011;51430;52.242;21.118;2023-04-05T05:06:06;26.10;;;16.40;;
33794;SDS011;51430;52.242;21.118;2023-04-05T05:08:34;24.30;;;16.20;;
33794;SDS011;51430;52.242;21.118;2023-04-05T05:11:05;20.70;;;15.20;;
33794;SDS011;51430;52.242;21.118;2023-04-05T05:13:33;22.50;;;15.40;;
33794;SDS011;51430;52.242;21.118;2023-04-05T05:16:02;24.30;;;16.40;;
33794;SDS011;51430;52.242;21.118;2023-04-05T05:18:31;23.80;;;16.10;;
33794;SDS011;51430;52.242;21.118;2023-04-05T05:20:58;23.00;;;15.60;;
33794;SDS011;51430;52.242;21.118;2023-04-05T05:23:26;25.70;;;16.50;;
33794;SDS011;51430;52.242;21.118;2023-04-05T05:25:57;25.70;;;16.30;;
33794;SDS011;51430;52.242;21.118;2023-04-05T05:28:26;21.90;;;16.30;;
33794;SDS011;51430;52.242;21.118;2023-04-05T05:30:54;23.10;;;16.20;;
33794;SDS011;51430;52.242;21.118;2023-04-05T05:33:22;22.90;;;15.50;;
33794;SDS011;51430;52.242;21.118;2023-04-05T05:35:50;18.60;;;14.20;;
33794;SDS011;51430;52.242;21.118;2023-04-05T05:38:19;19.90;;;14.40;;
33794;SDS011;51430;52.242;21.118;2023-04-05T05:40:47;23.20;;;13.50;;
33794;SDS011;51430;52.242;21.118;2023-04-05T05:43:14;21.20;;;14.10;;
33794;SDS011;51430;52.242;21.118;2023-04-05T05:45:42;21.00;;;14.80;;
33794;SDS011;51430;52.242;21.118;2023-04-05T05:48:10;22.60;;;14.00;;
33794;SDS011;51430;52.242;21.118;2023-04-05T05:50:38;22.90;;;14.50;;
33794;SDS011;51430;52.242;21.118;2023-04-05T05:53:07;19.90;;;13.90;;
33794;SDS011;51430;52.242;21.118;2023-04-05T05:55:35;21.50;;;13.50;;
33794;SDS011;51430;52.242;21.118;2023-04-05T05:58:03;17.60;;;13.80;;
33794;SDS011;51430;52.242;21.118;2023-04-05T06:00:31;17.20;;;12.80;;
33794;SDS011;51430;52.242;21.118;2023-04-05T06:02:59;17.60;;;12.50;;
33794;SDS011;51430;52.242;21.118;2023-04-05T06:05:28;18.10;;;13.70;;
33794;SDS011;51430;52.242;21.118;2023-04-05T06:07:56;18.60;;;13.60;;
33794;SDS011;51430;52.242;21.118;2023-04-05T06:10:23;21.30;;;13.80;;
33794;SDS011;51430;52.242;21.118;2023-04-05T06:12:52;20.50;;;13.20;;
33794;SDS011;51430;52.242;21.118;2023-04-05T06:15:22;20.50;;;13.60;;
33794;SDS011;51430;52.242;21.118;2023-04-05T06:17:50;22.00;;;13.00;;
33794;SDS011;51430;52.242;21.118;2023-04-05T06:20:17;17.20;;;12.60;;
33794;SDS011;51430;52.242;21.118;2023-04-05T06:22:45;23.70;;;12.70;;
33794;SDS011;51430;52.242;21.118;2023-04-05T06:25:13;17.80;;;11.10;;
33794;SDS011;51430;52.242;21.118;2023-04-05T06:27:44;22.50;;;11.20;;
33794;SDS011;51430;52.242;21.118;2023-04-05T06:30:12;17.40;;;10.50;;
33794;SDS011;51430;52.242;21.118;2023-04-05T06:32:40;20.80;;;11.20;;
33794;SDS011;51430;52.242;21.118;2023-04-05T06:35:08;15.20;;;9.40;;
33794;SDS011;51430;52.242;21.118;2023-04-05T06:37:39;14.90;;;9.10;;
33794;SDS011;51430;52.242;21.118;2023-04-05T06:40:08;16.80;;;9.90;;
33794;SDS011;51430;52.242;21.118;2023-04-05T06:42:36;12.50;;;8.50;;
33794;SDS011;51430;52.242;21.118;2023-04-05T06:45:04;17.60;;;9.70;;
33794;SDS011;51430;52.242;21.118;2023-04-05T06:47:33;18.50;;;9.40;;
33794;SDS011;51430;52.242;21.118;2023-04-05T06:50:05;14.40;;;8.30;;
33794;SDS011;51430;52.242;21.118;2023-04-05T06:52:37;13.60;;;7.60;;
33794;SDS011;51430;52.242;21.118;2023-04-05T06:55:05;11.40;;;7.80;;
33794;SDS011;51430;52.242;21.118;2023-04-05T06:57:34;13.20;;;9.10;;
33794;SDS011;51430;52.242;21.118;2023-04-05T07:00:02;15.50;;;8.70;;
33794;SDS011;51430;52.242;21.118;2023-04-05T07:02:37;13.00;;;8.60;;
33794;SDS011;51430;52.242;21.118;2023-04-05T07:05:05;15.80;;;9.30;;
33794;SDS011;51430;52.242;21.118;2023-04-05T07:07:37;14.40;;;9.20;;
33794;SDS011;51430;52.242;21.118;2023-04-05T07:10:06;14.10;;;9.00;;
33794;SDS011;51430;52.242;21.118;2023-04-05T07:12:35;16.20;;;9.30;;
33794;SDS011;51430;52.242;21.118;2023-04-05T07:15:03;15.20;;;8.80;;
33794;SDS011;51430;52.242;21.118;2023-04-05T07:17:32;15.80;;;8.20;;
33794;SDS011;51430;52.242;21.118;2023-04-05T07:19:59;12.90;;;7.30;;
33794;SDS011;51430;52.242;21.118;2023-04-05T07:22:27;14.30;;;8.30;;
33794;SDS011;51430;52.242;21.118;2023-04-05T07:24:55;12.60;;;9.30;;
33794;SDS011;51430;52.242;21.118;2023-04-05T07:27:23;13.30;;;8.30;;
33794;SDS011;51430;52.242;21.118;2023-04-05T07:29:51;13.60;;;8.20;;
33794;SDS011;51430;52.242;21.118;2023-04-05T07:32:18;11.50;;;6.50;;
33794;SDS011;51430;52.242;21.118;2023-04-05T07:34:46;12.70;;;7.00;;
33794;SDS011;51430;52.242;21.118;2023-04-05T07:37:14;11.90;;;7.00;;
33794;SDS011;51430;52.242;21.118;2023-04-05T07:39:42;20.80;;;8.90;;
33794;SDS011;51430;52.242;21.118;2023-04-05T07:42:10;11.40;;;7.50;;
33794;SDS011;51430;52.242;21.118;2023-04-05T07:44:38;15.70;;;7.70;;
33794;SDS011;51430;52.242;21.118;2023-04-05T07:47:06;9.20;;;6.50;;
33794;SDS011;51430;52.242;21.118;2023-04-05T07:49:34;9.80;;;5.50;;
33794;SDS011;51430;52.242;21.118;2023-04-05T07:52:04;11.00;;;6.20;;
33794;SDS011;51430;52.242;21.118;2023-04-05T07:54:33;11.00;;;6.10;;
33794;SDS011;51430;52.242;21.118;2023-04-05T07:57:01;13.10;;;8.20;;
33794;SDS011;51430;52.242;21.118;2023-04-05T07:59:29;12.80;;;8.00;;
33794;SDS011;51430;52.242;21.118;2023-04-05T08:01:57;10.60;;;6.00;;
33794;SDS011;51430;52.242;21.118;2023-04-05T08:04:38;9.70;;;5.50;;
33794;SDS011;51430;52.242;21.118;2023-04-05T08:07:07;9.30;;;5.60;;
33794;SDS011;51430;52.242;21.118;2023-04-05T08:09:35;10.90;;;5.50;;
33794;SDS011;51430;52.242;21.118;2023-04-05T08:12:03;9.10;;;5.30;;
33794;SDS011;51430;52.242;21.118;2023-04-05T08:14:31;8.90;;;5.20;;
33794;SDS011;51430;52.242;21.118;2023-04-05T08:16:59;9.60;;;5.50;;
33794;SDS011;51430;52.242;21.118;2023-04-05T08:19:27;9.40;;;5.10;;
33794;SDS011;51430;52.242;21.118;2023-04-05T08:21:55;8.20;;;5.20;;
33794;SDS011;51430;52.242;21.118;2023-04-05T08:24:23;10.10;;;5.60;;
33794;SDS011;51430;52.242;21.118;2023-04-05T08:26:51;11.50;;;5.80;;
33794;SDS011;51430;52.242;21.118;2023-04-05T08:29:19;8.00;;;5.40;;
33794;SDS011;51430;52.242;21.118;2023-04-05T08:31:47;10.90;;;6.00;;
33794;SDS011;51430;52.242;21.118;2023-04-05T08:34:15;10.10;;;5.80;;
33794;SDS011;51430;52.242;21.118;2023-04-05T08:36:43;8.00;;;5.90;;
33794;SDS011;51430;52.242;21.118;2023-04-05T08:39:13;13.30;;;5.90;;
33794;SDS011;51430;52.242;21.118;2023-04-05T08:41:46;11.00;;;6.70;;
33794;SDS011;51430;52.242;21.118;2023-04-05T08:44:20;12.80;;;8.90;;
33794;SDS011;51430;52.242;21.118;2023-04-05T08:46:52;13.30;;;8.20;;
33794;SDS011;51430;52.242;21.118;2023-04-05T08:49:24;14.00;;;9.20;;
33794;SDS011;51430;52.242;21.118;2023-04-05T08:51:53;15.00;;;7.90;;
33794;SDS011;51430;52.242;21.118;2023-04-05T08:54:22;16.20;;;8.00;;
33794;SDS011;51430;52.242;21.118;2023-04-05T08:56:50;16.40;;;8.70;;
33794;SDS011;51430;52.242;21.118;2023-04-05T08:59:21;19.80;;;11.70;;
33794;SDS011;51430;52.242;21.118;2023-04-05T09:01:49;17.50;;;11.20;;
33794;SDS011;51430;52.242;21.118;2023-04-05T09:04:22;14.50;;;9.40;;
33794;SDS011;51430;52.242;21.118;2023-04-05T09:06:55;14.10;;;9.40;;
33794;SDS011;51430;52.242;21.118;2023-04-05T09:09:25;17.90;;;12.40;;
33794;SDS011;51430;52.242;21.118;2023-04-05T09:12:04;19.20;;;11.40;;
33794;SDS011;51430;52.242;21.118;2023-04-05T09:14:34;15.40;;;10.20;;
33794;SDS011;51430;52.242;21.118;2023-04-05T09:17:04;18.80;;;11.30;;
33794;SDS011;51430;52.242;21.118;2023-04-05T09:19:33;19.10;;;11.90;;
33794;SDS011;51430;52.242;21.118;2023-04-05T09:22:01;18.10;;;10.40;;
33794;SDS011;51430;52.242;21.118;2023-04-05T09:27:16;13.80;;;8.70;;
33794;SDS011;51430;52.242;21.118;2023-04-05T09:29:45;15.50;;;8.70;;
33794;SDS011;51430;52.242;21.118;2023-04-05T09:32:15;15.80;;;8.70;;
33794;SDS011;51430;52.242;21.118;2023-04-05T09:34:45;10.50;;;7.20;;
33794;SDS011;51430;52.242;21.118;2023-04-05T09:37:15;12.80;;;7.10;;
33794;SDS011;51430;52.242;21.118;2023-04-05T09:39:47;12.20;;;5.60;;
33794;SDS011;51430;52.242;21.118;2023-04-05T09:42:19;8.30;;;4.60;;
33794;SDS011;51430;52.242;21.118;2023-04-05T09:44:56;8.10;;;4.40;;
33794;SDS011;51430;52.242;21.118;2023-04-05T09:47:31;6.10;;;4.00;;
33794;SDS011;51430;52.242;21.118;2023-04-05T09:50:15;6.80;;;4.30;;
33794;SDS011;51430;52.242;21.118;2023-04-05T09:52:45;7.20;;;4.10;;
33794;SDS011;51430;52.242;21.118;2023-04-05T09:55:17;6.50;;;4.40;;
33794;SDS011;51430;52.242;21.118;2023-04-05T09:57:53;6.40;;;4.60;;
33794;SDS011;51430;52.242;21.118;2023-04-05T10:00:23;8.70;;;4.50;;
33794;SDS011;51430;52.242;21.118;2023-04-05T10:02:51;7.10;;;4.70;;
33794;SDS011;51430;52.242;21.118;2023-04-05T10:05:24;6.20;;;4.60;;
33794;SDS011;51430;52.242;21.118;2023-04-05T10:07:54;8.00;;;5.20;;
33794;SDS011;51430;52.242;21.118;2023-04-05T10:10:23;8.70;;;5.50;;
33794;SDS011;51430;52.242;21.118;2023-04-05T10:12:52;8.30;;;5.20;;
33794;SDS011;51430;52.242;21.118;2023-04-05T10:15:20;8.80;;;5.10;;
33794;SDS011;51430;52.242;21.118;2023-04-05T10:17:53;8.20;;;5.40;;
33794;SDS011;51430;52.242;21.118;2023-04-05T10:20:30;6.30;;;4.40;;
33794;SDS011;51430;52.242;21.118;2023-04-05T10:23:06;6.90;;;4.40;;
33794;SDS011;51430;52.242;21.118;2023-04-05T10:34:07;7.30;;;4.50;;
33794;SDS011;51430;52.242;21.118;2023-04-05T10:42:25;8.10;;;4.90;;
33794;SDS011;51430;52.242;21.118;2023-04-05T10:44:57;6.00;;;5.00;;
33794;SDS011;51430;52.242;21.118;2023-04-05T10:47:31;10.40;;;5.70;;
33794;SDS011;51430;52.242;21.118;2023-04-05T10:50:11;11.00;;;5.10;;
33794;SDS011;51430;52.242;21.118;2023-04-05T10:52:46;9.50;;;5.00;;
33794;SDS011;51430;52.242;21.118;2023-04-05T10:55:15;6.10;;;4.70;;
33794;SDS011;51430;52.242;21.118;2023-04-05T10:57:43;6.90;;;4.60;;
33794;SDS011;51430;52.242;21.118;2023-04-05T11:00:12;8.30;;;4.70;;
33794;SDS011;51430;52.242;21.118;2023-04-05T11:02:42;5.70;;;4.10;;
33794;SDS011;51430;52.242;21.118;2023-04-05T11:05:29;6.70;;;4.00;;
33794;SDS011;51430;52.242;21.118;2023-04-05T11:08:02;5.90;;;4.20;;
33794;SDS011;51430;52.242;21.118;2023-04-05T11:10:35;5.20;;;3.90;;
33794;SDS011;51430;52.242;21.118;2023-04-05T11:13:07;7.50;;;4.20;;
33794;SDS011;51430;52.242;21.118;2023-04-05T11:15:37;6.40;;;4.40;;
33794;SDS011;51430;52.242;21.118;2023-04-05T11:18:06;6.30;;;4.10;;
33794;SDS011;51430;52.242;21.118;2023-04-05T11:20:51;5.80;;;4.50;;
33794;SDS011;51430;52.242;21.118;2023-04-05T11:23:23;6.80;;;4.40;;
33794;SDS011;51430;52.242;21.118;2023-04-05T11:25:55;6.90;;;4.70;;
33794;SDS011;51430;52.242;21.118;2023-04-05T11:28:33;7.50;;;4.70;;
33794;SDS011;51430;52.242;21.118;2023-04-05T11:31:11;6.90;;;4.80;;
33794;SDS011;51430;52.242;21.118;2023-04-05T11:36:29;7.00;;;5.10;;
33794;SDS011;51430;52.242;21.118;2023-04-05T11:41:53;8.80;;;5.60;;
33794;SDS011;51430;52.242;21.118;2023-04-05T11:44:44;7.20;;;4.90;;
33794;SDS011;51430;52.242;21.118;2023-04-05T11:47:17;6.20;;;4.50;;
33794;SDS011;51430;52.242;21.118;2023-04-05T11:49:49;7.70;;;4.60;;
33794;SDS011;51430;52.242;21.118;2023-04-05T11:52:19;9.40;;;4.30;;
33794;SDS011;51430;52.242;21.118;2023-04-05T11:54:47;5.90;;;4.30;;
33794;SDS011;51430;52.242;21.118;2023-04-05T11:57:20;7.20;;;4.50;;
33794;SDS011;51430;52.242;21.118;2023-04-05T11:59:50;8.00;;;4.60;;
33794;SDS011;51430;52.242;21.118;2023-04-05T12:02:18;5.80;;;4.20;;
33794;SDS011;51430;52.242;21.118;2023-04-05T12:04:54;5.40;;;4.10;;
33794;SDS011;51430;52.242;21.118;2023-04-05T12:07:25;5.50;;;4.30;;
33794;SDS011;51430;52.242;21.118;2023-04-05T12:10:04;6.60;;;4.60;;
33794;SDS011;51430;52.242;21.118;2023-04-05T12:12:39;6.80;;;4.30;;
33794;SDS011;51430;52.242;21.118;2023-04-05T12:15:09;7.80;;;4.30;;
33794;SDS011;51430;52.242;21.118;2023-04-05T12:20:12;6.50;;;4.40;;
33794;SDS011;51430;52.242;21.118;2023-04-05T12:22:42;6.40;;;4.50;;
33794;SDS011;51430;52.242;21.118;2023-04-05T12:25:11;5.50;;;3.90;;
33794;SDS011;51430;52.242;21.118;2023-04-05T12:27:40;7.40;;;4.40;;
33794;SDS011;51430;52.242;21.118;2023-04-05T12:30:08;8.00;;;4.60;;
33794;SDS011;51430;52.242;21.118;2023-04-05T12:32:59;5.70;;;4.00;;
33794;SDS011;51430;52.242;21.118;2023-04-05T12:35:38;5.10;;;3.80;;
33794;SDS011;51430;52.242;21.118;2023-04-05T12:38:06;6.10;;;4.30;;
33794;SDS011;51430;52.242;21.118;2023-04-05T12:40:36;9.00;;;4.40;;
33794;SDS011;51430;52.242;21.118;2023-04-05T12:43:07;6.20;;;4.20;;
33794;SDS011;51430;52.242;21.118;2023-04-05T12:45:35;5.40;;;3.80;;
33794;SDS011;51430;52.242;21.118;2023-04-05T12:48:08;6.80;;;4.50;;
33794;SDS011;51430;52.242;21.118;2023-04-05T12:50:45;5.70;;;4.00;;
33794;SDS011;51430;52.242;21.118;2023-04-05T12:53:15;5.20;;;3.90;;
33794;SDS011;51430;52.242;21.118;2023-04-05T12:55:47;5.00;;;4.00;;
33794;SDS011;51430;52.242;21.118;2023-04-05T12:58:20;5.10;;;3.80;;
33794;SDS011;51430;52.242;21.118;2023-04-05T13:00:50;6.80;;;4.10;;
33794;SDS011;51430;52.242;21.118;2023-04-05T13:03:18;7.30;;;4.50;;
33794;SDS011;51430;52.242;21.118;2023-04-05T13:05:48;7.00;;;4.00;;
33794;SDS011;51430;52.242;21.118;2023-04-05T13:08:16;8.00;;;4.20;;
33794;SDS011;51430;52.242;21.118;2023-04-05T13:10:47;5.00;;;4.10;;
33794;SDS011;51430;52.242;21.118;2023-04-05T13:13:16;6.20;;;4.10;;
33794;SDS011;51430;52.242;21.118;2023-04-05T13:15:44;4.90;;;4.20;;
33794;SDS011;51430;52.242;21.118;2023-04-05T13:18:13;5.00;;;3.90;;
33794;SDS011;51430;52.242;21.118;2023-04-05T13:20:41;5.80;;;4.40;;
33794;SDS011;51430;52.242;21.118;2023-04-05T13:23:10;6.30;;;4.30;;
33794;SDS011;51430;52.242;21.118;2023-04-05T13:25:39;6.20;;;4.50;;
33794;SDS011;51430;52.242;21.118;2023-04-05T13:28:08;5.60;;;4.20;;
33794;SDS011;51430;52.242;21.118;2023-04-05T13:30:37;6.40;;;4.60;;
33794;SDS011;51430;52.242;21.118;2023-04-05T13:33:05;5.60;;;4.40;;
33794;SDS011;51430;52.242;21.118;2023-04-05T13:35:33;10.10;;;4.10;;
33794;SDS011;51430;52.242;21.118;2023-04-05T13:38:00;7.90;;;4.30;;
33794;SDS011;51430;52.242;21.118;2023-04-05T13:40:31;8.80;;;4.50;;
33794;SDS011;51430;52.242;21.118;2023-04-05T13:42:59;24.20;;;5.70;;
33794;SDS011;51430;52.242;21.118;2023-04-05T13:45:28;11.40;;;4.50;;
33794;SDS011;51430;52.242;21.118;2023-04-05T13:47:56;10.80;;;5.30;;
33794;SDS011;51430;52.242;21.118;2023-04-05T13:50:24;7.10;;;4.60;;
33794;SDS011;51430;52.242;21.118;2023-04-05T13:52:52;6.50;;;4.20;;
33794;SDS011;51430;52.242;21.118;2023-04-05T13:55:20;5.70;;;4.20;;
33794;SDS011;51430;52.242;21.118;2023-04-05T13:57:48;6.10;;;4.50;;
33794;SDS011;51430;52.242;21.118;2023-04-05T14:00:16;8.70;;;4.80;;
33794;SDS011;51430;52.242;21.118;2023-04-05T14:02:44;6.00;;;4.30;;
33794;SDS011;51430;52.242;21.118;2023-04-05T14:05:12;7.00;;;4.40;;
33794;SDS011;51430;52.242;21.118;2023-04-05T14:07:41;5.50;;;4.10;;
33794;SDS011;51430;52.242;21.118;2023-04-05T14:10:09;5.90;;;4.10;;
33794;SDS011;51430;52.242;21.118;2023-04-05T14:12:38;6.30;;;4.40;;
33794;SDS011;51430;52.242;21.118;2023-04-05T14:15:06;6.70;;;4.40;;
33794;SDS011;51430;52.242;21.118;2023-04-05T14:17:34;5.40;;;4.20;;
33794;SDS011;51430;52.242;21.118;2023-04-05T14:20:02;7.70;;;4.40;;
33794;SDS011;51430;52.242;21.118;2023-04-05T14:22:30;7.50;;;4.30;;
33794;SDS011;51430;52.242;21.118;2023-04-05T14:24:58;5.80;;;4.20;;
33794;SDS011;51430;52.242;21.118;2023-04-05T14:27:26;6.40;;;4.00;;
33794;SDS011;51430;52.242;21.118;2023-04-05T14:29:55;5.10;;;4.30;;
33794;SDS011;51430;52.242;21.118;2023-04-05T14:32:23;6.20;;;4.50;;
33794;SDS011;51430;52.242;21.118;2023-04-05T14:34:54;7.20;;;4.50;;
33794;SDS011;51430;52.242;21.118;2023-04-05T14:37:22;5.50;;;4.50;;
33794;SDS011;51430;52.242;21.118;2023-04-05T14:39:50;6.80;;;4.50;;
33794;SDS011;51430;52.242;21.118;2023-04-05T14:42:18;5.20;;;4.20;;
33794;SDS011;51430;52.242;21.118;2023-04-05T14:44:47;6.10;;;4.40;;
33794;SDS011;51430;52.242;21.118;2023-04-05T14:47:15;7.80;;;4.70;;
33794;SDS011;51430;52.242;21.118;2023-04-05T14:49:43;6.60;;;4.70;;
33794;SDS011;51430;52.242;21.118;2023-04-05T14:52:11;6.00;;;4.30;;
33794;SDS011;51430;52.242;21.118;2023-04-05T14:54:39;8.90;;;5.00;;
33794;SDS011;51430;52.242;21.118;2023-04-05T14:57:07;7.70;;;4.90;;
33794;SDS011;51430;52.242;21.118;2023-04-05T14:59:38;6.80;;;4.40;;
33794;SDS011;51430;52.242;21.118;2023-04-05T15:02:05;6.20;;;4.70;;
33794;SDS011;51430;52.242;21.118;2023-04-05T15:04:34;8.20;;;4.80;;
33794;SDS011;51430;52.242;21.118;2023-04-05T15:07:02;7.30;;;4.50;;
33794;SDS011;51430;52.242;21.118;2023-04-05T15:09:30;7.20;;;4.80;;